Dayton, OH (45424)

10:02 PM EDT on April 20, 2015 (GMT -0400)
Rt. 202~ I-70-Rt-40 | | Change Station
CLOSE
Current Station
Personal Weather Station
Location: Dayton, OH
Elevation: 978 ft
Nearby Weather Stations
Active Advisory: Wind Advisory Active Notice: Local Storm Report

Elev 978 ft 39.88 °N, 84.13 °W | Updated 28 seconds ago

Partly Cloudy
Partly Cloudy
48.7 °F
Feels Like 44 °F
N
11.5
Wind Variable Wind from NW
Gusts 11.5 mph

Today
High -- | Low -- °F
--% Chance of Precip.
Yesterday
High -- | Low -- °F
Precip. -- in
6:51 AM 8:19 PM
Waxing Crescent, 7% visible
Pressure 29.69 in
Visibility 10.0 miles
Clouds Few 4100 ft
Mostly Cloudy 8000 ft
Windchill 44 °F
Dew Point 38 °F
Humidity 67%
Rainfall 0.23 in
Snow Depth Not available.
UV 0 out of 12
Pollen 7.40 out of 12
Air Quality Not available.
Flu Activity Regional
METAR KFFO 210158Z AUTO 27015G19KT 10SM FEW041 BKN080 10/03 A2969 RMK AO2 SLPNO T01040025

More Conditions Fewer Conditions

Pressure 29.69 in
Visibility 10.0 miles
Clouds Few 4100 ft
Mostly Cloudy 8000 ft
Windchill 44 °F
Dew Point 38 °F
Humidity 67%
Rainfall 0.23 in
Snow Depth Not available.
UV 0 out of 12
Pollen 7.40 out of 12
Air Quality Not available.
Flu Activity Regional
METAR KFFO 210158Z AUTO 27015G19KT 10SM FEW041 BKN080 10/03 A2969 RMK AO2 SLPNO T01040025

More Conditions Fewer Conditions

10-Day Weather Forecast

Almanac

Astronomy

Apr. 20, 2015 Rise Set
Actual Time
Civil Twilight
Nautical Twilight
Astronomical Twilight
Moon
Length of Visible Light
Length of Day
Tomorrow will be .
, % of the Moon is Illuminated

Today's Extremes

State Highs State Lows

Community

WunderPhotos

Upload Photos

1,815,278 photos uploaded!

WunderBlogs® & News

Nearby

Air Quality

  Air Quality AQ Index Pollutant
Not available.

Snow Depth

Station Depth Elevation

Earthquake Activity

City Distance Mag. Time & Date
Minimum magnitude displayed is 2.5.

Coastal Water Temperatures

Place Temperature

Stations

Nearby Weather Stations

Station Location Temp. Windchill Dew Point Humidity Wind Precip. Elev Updated Type
                   
Wind Advisory
Statement as of 3:29 PM EDT on April 20, 2015

... Wind Advisory in effect from 11 am to 8 PM EDT Tuesday...

The National Weather Service in Wilmington has issued a Wind
Advisory... which is in effect from 11 am to 8 PM EDT Tuesday.

* Locations... counties along and generally north of Interstate 70.

* Winds... west 25 to 35 mph with gusts in excess of 45 mph.

* Impacts... scattered tree and power line damage is possible
along with some minor property damage in the highest gusts.
Winds this strong can make driving difficult... especially for
high profile vehicles.

Precautionary/preparedness actions...

A Wind Advisory is issued when sustained winds are forecast to be
31 to 39 mph or gusts will range between 46 and 57 mph. Winds of
these magnitudes may cause minor property damage without extra
precautions. Motorists in high profile vehicles should use
caution until the winds subside.